sensor_id;sensor_type;location;lat;lon;timestamp;temperature;humidity
52203;DHT22;38173;52.850;6.970;2023-06-04T00:02:26;9.30;99.90
52203;DHT22;38173;52.850;6.970;2023-06-04T00:04:52;9.20;99.90
52203;DHT22;38173;52.850;6.970;2023-06-04T00:07:18;9.10;99.90
52203;DHT22;38173;52.850;6.970;2023-06-04T00:09:44;9.00;99.90
52203;DHT22;38173;52.850;6.970;2023-06-04T00:12:12;8.90;99.90
52203;DHT22;38173;52.850;6.970;2023-06-04T00:14:39;8.90;99.90
52203;DHT22;38173;52.850;6.970;2023-06-04T00:17:05;8.80;99.90
52203;DHT22;38173;52.850;6.970;2023-06-04T00:19:31;8.80;99.90
52203;DHT22;38173;52.850;6.970;2023-06-04T00:21:56;8.80;99.90
52203;DHT22;38173;52.850;6.970;2023-06-04T00:24:22;8.70;99.90
52203;DHT22;38173;52.850;6.970;2023-06-04T00:26:48;8.70;99.90
52203;DHT22;38173;52.850;6.970;2023-06-04T00:29:17;8.70;99.90
52203;DHT22;38173;52.850;6.970;2023-06-04T00:31:43;8.70;99.90
52203;DHT22;38173;52.850;6.970;2023-06-04T00:34:10;8.70;99.90
52203;DHT22;38173;52.850;6.970;2023-06-04T00:36:36;8.70;99.90
52203;DHT22;38173;52.850;6.970;2023-06-04T00:39:02;8.60;99.90
52203;DHT22;38173;52.850;6.970;2023-06-04T00:41:27;8.60;99.90
52203;DHT22;38173;52.850;6.970;2023-06-04T00:43:55;8.60;99.90
52203;DHT22;38173;52.850;6.970;2023-06-04T00:46:27;8.50;99.90
52203;DHT22;38173;52.850;6.970;2023-06-04T00:48:54;8.50;99.90
52203;DHT22;38173;52.850;6.970;2023-06-04T00:51:22;8.50;99.90
52203;DHT22;38173;52.850;6.970;2023-06-04T00:53:50;8.60;99.90
52203;DHT22;38173;52.850;6.970;2023-06-04T00:56:16;8.60;99.90
52203;DHT22;38173;52.850;6.970;2023-06-04T00:58:42;8.70;99.90
52203;DHT22;38173;52.850;6.970;2023-06-04T01:03:47;8.70;99.90
52203;DHT22;38173;52.850;6.970;2023-06-04T01:06:34;8.60;99.90
52203;DHT22;38173;52.850;6.970;2023-06-04T01:09:01;8.70;99.90
52203;DHT22;38173;52.850;6.970;2023-06-04T01:11:36;8.60;99.90
52203;DHT22;38173;52.850;6.970;2023-06-04T01:14:03;8.60;99.90
52203;DHT22;38173;52.850;6.970;2023-06-04T01:16:34;8.50;99.90
52203;DHT22;38173;52.850;6.970;2023-06-04T01:19:02;8.50;99.90
52203;DHT22;38173;52.850;6.970;2023-06-04T01:21:33;8.50;99.90
52203;DHT22;38173;52.850;6.970;2023-06-04T01:24:01;8.50;99.90
52203;DHT22;38173;52.850;6.970;2023-06-04T01:26:31;8.40;99.90
52203;DHT22;38173;52.850;6.970;2023-06-04T01:28:58;8.40;99.90
52203;DHT22;38173;52.850;6.970;2023-06-04T01:31:25;8.30;99.90
52203;DHT22;38173;52.850;6.970;2023-06-04T01:33:55;8.30;99.90
52203;DHT22;38173;52.850;6.970;2023-06-04T01:36:23;8.30;99.90
52203;DHT22;38173;52.850;6.970;2023-06-04T01:38:49;8.30;99.90
52203;DHT22;38173;52.850;6.970;2023-06-04T01:41:16;8.30;99.90
52203;DHT22;38173;52.850;6.970;2023-06-04T01:43:42;8.30;99.90
52203;DHT22;38173;52.850;6.970;2023-06-04T01:46:07;8.30;99.90
52203;DHT22;38173;52.850;6.970;2023-06-04T01:48:33;8.30;99.90
52203;DHT22;38173;52.850;6.970;2023-06-04T01:50:59;8.30;99.90
52203;DHT22;38173;52.850;6.970;2023-06-04T01:53:25;8.30;99.90
52203;DHT22;38173;52.850;6.970;2023-06-04T01:55:51;8.30;99.90
52203;DHT22;38173;52.850;6.970;2023-06-04T01:58:18;8.30;99.90
52203;DHT22;38173;52.850;6.970;2023-06-04T02:00:51;8.30;99.90
52203;DHT22;38173;52.850;6.970;2023-06-04T02:03:18;8.20;99.90
52203;DHT22;38173;52.850;6.970;2023-06-04T02:05:44;8.30;99.90
52203;DHT22;38173;52.850;6.970;2023-06-04T02:08:14;8.30;99.90
52203;DHT22;38173;52.850;6.970;2023-06-04T02:10:48;8.20;99.90
52203;DHT22;38173;52.850;6.970;2023-06-04T02:13:14;8.30;99.90
52203;DHT22;38173;52.850;6.970;2023-06-04T02:15:41;8.30;99.90
52203;DHT22;38173;52.850;6.970;2023-06-04T02:18:18;8.20;99.90
52203;DHT22;38173;52.850;6.970;2023-06-04T02:20:47;8.30;99.90
52203;DHT22;38173;52.850;6.970;2023-06-04T02:23:14;8.20;99.90
52203;DHT22;38173;52.850;6.970;2023-06-04T02:25:41;8.20;99.90
52203;DHT22;38173;52.850;6.970;2023-06-04T02:28:10;8.20;99.90
52203;DHT22;38173;52.850;6.970;2023-06-04T02:30:36;8.20;99.90
52203;DHT22;38173;52.850;6.970;2023-06-04T02:33:02;8.10;99.90
52203;DHT22;38173;52.850;6.970;2023-06-04T02:35:30;8.10;99.90
52203;DHT22;38173;52.850;6.970;2023-06-04T02:37:56;8.20;99.90
52203;DHT22;38173;52.850;6.970;2023-06-04T02:40:24;8.10;99.90
52203;DHT22;38173;52.850;6.970;2023-06-04T02:42:52;8.10;99.90
52203;DHT22;38173;52.850;6.970;2023-06-04T02:45:18;8.10;99.90
52203;DHT22;38173;52.850;6.970;2023-06-04T02:47:44;8.10;99.90
52203;DHT22;38173;52.850;6.970;2023-06-04T02:50:14;8.10;99.90
52203;DHT22;38173;52.850;6.970;2023-06-04T02:52:40;8.20;99.90
52203;DHT22;38173;52.850;6.970;2023-06-04T02:55:07;8.20;99.90
52203;DHT22;38173;52.850;6.970;2023-06-04T02:57:33;8.20;99.90
52203;DHT22;38173;52.850;6.970;2023-06-04T03:00:03;8.20;99.90
52203;DHT22;38173;52.850;6.970;2023-06-04T03:02:42;8.20;99.90
52203;DHT22;38173;52.850;6.970;2023-06-04T03:05:10;8.20;99.90
52203;DHT22;38173;52.850;6.970;2023-06-04T03:07:37;8.20;99.90
52203;DHT22;38173;52.850;6.970;2023-06-04T03:10:03;8.20;99.90
52203;DHT22;38173;52.850;6.970;2023-06-04T03:12:30;8.20;99.90
52203;DHT22;38173;52.850;6.970;2023-06-04T03:14:56;8.20;99.90
52203;DHT22;38173;52.850;6.970;2023-06-04T03:17:21;8.20;99.90
52203;DHT22;38173;52.850;6.970;2023-06-04T03:19:47;8.20;99.90
52203;DHT22;38173;52.850;6.970;2023-06-04T03:22:14;8.20;99.90
52203;DHT22;38173;52.850;6.970;2023-06-04T03:24:41;8.30;99.90
52203;DHT22;38173;52.850;6.970;2023-06-04T03:27:08;8.20;99.90
52203;DHT22;38173;52.850;6.970;2023-06-04T03:29:35;8.20;99.90
52203;DHT22;38173;52.850;6.970;2023-06-04T03:32:01;8.10;99.90
52203;DHT22;38173;52.850;6.970;2023-06-04T03:34:27;8.10;99.90
52203;DHT22;38173;52.850;6.970;2023-06-04T03:36:54;8.00;99.90
52203;DHT22;38173;52.850;6.970;2023-06-04T03:39:20;8.00;99.90
52203;DHT22;38173;52.850;6.970;2023-06-04T03:41:47;8.00;99.90
52203;DHT22;38173;52.850;6.970;2023-06-04T03:44:18;7.90;99.90
52203;DHT22;38173;52.850;6.970;2023-06-04T03:46:44;8.00;99.90
52203;DHT22;38173;52.850;6.970;2023-06-04T03:49:11;8.00;99.90
52203;DHT22;38173;52.850;6.970;2023-06-04T03:51:37;8.00;99.90
52203;DHT22;38173;52.850;6.970;2023-06-04T03:54:04;8.10;99.90
52203;DHT22;38173;52.850;6.970;2023-06-04T03:56:30;8.10;99.90
52203;DHT22;38173;52.850;6.970;2023-06-04T03:58:56;8.20;99.90
52203;DHT22;38173;52.850;6.970;2023-06-04T04:01:22;8.20;99.90
52203;DHT22;38173;52.850;6.970;2023-06-04T04:03:49;8.20;99.90
52203;DHT22;38173;52.850;6.970;2023-06-04T04:06:17;8.30;99.90
52203;DHT22;38173;52.850;6.970;2023-06-04T04:08:46;8.30;99.90
52203;DHT22;38173;52.850;6.970;2023-06-04T04:11:14;8.30;99.90
52203;DHT22;38173;52.850;6.970;2023-06-04T04:13:40;8.20;99.90
52203;DHT22;38173;52.850;6.970;2023-06-04T04:16:08;8.20;99.90
52203;DHT22;38173;52.850;6.970;2023-06-04T04:18:36;8.30;99.90
52203;DHT22;38173;52.850;6.970;2023-06-04T04:21:03;8.30;99.90
52203;DHT22;38173;52.850;6.970;2023-06-04T04:23:30;8.30;99.90
52203;DHT22;38173;52.850;6.970;2023-06-04T04:25:58;8.30;99.90
52203;DHT22;38173;52.850;6.970;2023-06-04T04:28:27;8.40;99.90
52203;DHT22;38173;52.850;6.970;2023-06-04T04:30:57;8.40;99.90
52203;DHT22;38173;52.850;6.970;2023-06-04T04:33:31;8.50;99.90
52203;DHT22;38173;52.850;6.970;2023-06-04T04:35:58;8.60;99.90
52203;DHT22;38173;52.850;6.970;2023-06-04T04:38:25;8.70;99.90
52203;DHT22;38173;52.850;6.970;2023-06-04T04:40:51;8.80;99.90
52203;DHT22;38173;52.850;6.970;2023-06-04T04:43:32;9.00;99.90
52203;DHT22;38173;52.850;6.970;2023-06-04T04:45:58;9.10;99.90
52203;DHT22;38173;52.850;6.970;2023-06-04T04:48:24;9.20;99.90
52203;DHT22;38173;52.850;6.970;2023-06-04T04:50:52;9.30;99.90
52203;DHT22;38173;52.850;6.970;2023-06-04T04:53:18;9.40;99.90
52203;DHT22;38173;52.850;6.970;2023-06-04T04:55:44;9.50;99.90
52203;DHT22;38173;52.850;6.970;2023-06-04T04:58:10;9.60;99.90
52203;DHT22;38173;52.850;6.970;2023-06-04T05:00:35;9.70;99.90
52203;DHT22;38173;52.850;6.970;2023-06-04T05:03:02;9.90;99.90
52203;DHT22;38173;52.850;6.970;2023-06-04T05:05:27;9.90;99.90
52203;DHT22;38173;52.850;6.970;2023-06-04T05:07:53;10.10;99.90
52203;DHT22;38173;52.850;6.970;2023-06-04T05:10:19;10.20;99.90
52203;DHT22;38173;52.850;6.970;2023-06-04T05:12:54;10.30;99.90
52203;DHT22;38173;52.850;6.970;2023-06-04T05:15:20;10.40;99.90
52203;DHT22;38173;52.850;6.970;2023-06-04T05:17:46;10.50;99.90
52203;DHT22;38173;52.850;6.970;2023-06-04T05:20:13;10.60;99.90
52203;DHT22;38173;52.850;6.970;2023-06-04T05:22:39;10.80;99.90
52203;DHT22;38173;52.850;6.970;2023-06-04T05:25:05;10.90;99.90
52203;DHT22;38173;52.850;6.970;2023-06-04T05:27:34;11.00;99.90
52203;DHT22;38173;52.850;6.970;2023-06-04T05:30:01;11.10;99.90
52203;DHT22;38173;52.850;6.970;2023-06-04T05:32:29;11.30;99.90
52203;DHT22;38173;52.850;6.970;2023-06-04T05:34:58;11.40;99.90
52203;DHT22;38173;52.850;6.970;2023-06-04T05:37:27;11.50;99.90
52203;DHT22;38173;52.850;6.970;2023-06-04T05:39:55;11.60;99.90
52203;DHT22;38173;52.850;6.970;2023-06-04T05:42:22;11.70;99.90
52203;DHT22;38173;52.850;6.970;2023-06-04T05:44:48;11.80;99.90
52203;DHT22;38173;52.850;6.970;2023-06-04T05:47:15;12.00;99.90
52203;DHT22;38173;52.850;6.970;2023-06-04T05:49:42;12.10;99.90
52203;DHT22;38173;52.850;6.970;2023-06-04T05:52:08;12.20;99.90
52203;DHT22;38173;52.850;6.970;2023-06-04T05:54:34;12.30;99.90
52203;DHT22;38173;52.850;6.970;2023-06-04T05:56:59;12.40;99.90
52203;DHT22;38173;52.850;6.970;2023-06-04T05:59:25;12.50;99.90
52203;DHT22;38173;52.850;6.970;2023-06-04T06:01:51;12.50;99.90
52203;DHT22;38173;52.850;6.970;2023-06-04T06:04:17;12.60;99.90
52203;DHT22;38173;52.850;6.970;2023-06-04T06:06:43;12.60;99.90
52203;DHT22;38173;52.850;6.970;2023-06-04T06:09:16;12.80;99.90
52203;DHT22;38173;52.850;6.970;2023-06-04T06:11:42;12.80;99.90
52203;DHT22;38173;52.850;6.970;2023-06-04T06:14:08;13.00;99.90
52203;DHT22;38173;52.850;6.970;2023-06-04T06:16:34;13.10;99.90
52203;DHT22;38173;52.850;6.970;2023-06-04T06:19:05;13.20;99.90
52203;DHT22;38173;52.850;6.970;2023-06-04T06:21:31;13.20;99.90
52203;DHT22;38173;52.850;6.970;2023-06-04T06:24:00;13.40;99.90
52203;DHT22;38173;52.850;6.970;2023-06-04T06:26:26;13.40;99.90
52203;DHT22;38173;52.850;6.970;2023-06-04T06:28:52;13.50;99.90
52203;DHT22;38173;52.850;6.970;2023-06-04T06:31:18;13.70;99.90
52203;DHT22;38173;52.850;6.970;2023-06-04T06:33:44;13.70;99.90
52203;DHT22;38173;52.850;6.970;2023-06-04T06:36:10;13.80;99.90
52203;DHT22;38173;52.850;6.970;2023-06-04T06:38:40;14.00;99.90
52203;DHT22;38173;52.850;6.970;2023-06-04T06:41:06;14.10;99.90
52203;DHT22;38173;52.850;6.970;2023-06-04T06:43:32;14.20;99.90
52203;DHT22;38173;52.850;6.970;2023-06-04T06:45:58;14.20;99.90
52203;DHT22;38173;52.850;6.970;2023-06-04T06:48:25;14.30;99.90
52203;DHT22;38173;52.850;6.970;2023-06-04T06:50:50;14.40;99.90
52203;DHT22;38173;52.850;6.970;2023-06-04T06:53:16;14.50;99.90
52203;DHT22;38173;52.850;6.970;2023-06-04T06:55:42;14.60;99.90
52203;DHT22;38173;52.850;6.970;2023-06-04T06:58:08;14.70;99.90
52203;DHT22;38173;52.850;6.970;2023-06-04T07:00:33;14.70;99.90
52203;DHT22;38173;52.850;6.970;2023-06-04T07:02:59;14.80;99.90
52203;DHT22;38173;52.850;6.970;2023-06-04T07:05:26;14.80;99.90
52203;DHT22;38173;52.850;6.970;2023-06-04T07:07:54;14.90;99.90
52203;DHT22;38173;52.850;6.970;2023-06-04T07:10:20;14.90;99.90
52203;DHT22;38173;52.850;6.970;2023-06-04T07:12:46;14.90;99.90
52203;DHT22;38173;52.850;6.970;2023-06-04T07:15:12;15.10;99.90
52203;DHT22;38173;52.850;6.970;2023-06-04T07:17:38;15.20;99.90
52203;DHT22;38173;52.850;6.970;2023-06-04T07:20:04;15.20;99.90
52203;DHT22;38173;52.850;6.970;2023-06-04T07:22:32;15.40;99.90
52203;DHT22;38173;52.850;6.970;2023-06-04T07:24:59;15.40;99.90
52203;DHT22;38173;52.850;6.970;2023-06-04T07:27:28;15.60;99.90
52203;DHT22;38173;52.850;6.970;2023-06-04T07:29:54;15.60;99.90
52203;DHT22;38173;52.850;6.970;2023-06-04T07:32:19;15.80;99.90
52203;DHT22;38173;52.850;6.970;2023-06-04T07:34:45;16.00;99.90
52203;DHT22;38173;52.850;6.970;2023-06-04T07:37:14;16.10;99.90
52203;DHT22;38173;52.850;6.970;2023-06-04T07:39:41;16.10;99.90
52203;DHT22;38173;52.850;6.970;2023-06-04T07:42:07;16.10;99.90
52203;DHT22;38173;52.850;6.970;2023-06-04T07:44:33;16.20;99.90
52203;DHT22;38173;52.850;6.970;2023-06-04T07:47:02;16.20;99.90
52203;DHT22;38173;52.850;6.970;2023-06-04T07:49:27;16.30;99.90
52203;DHT22;38173;52.850;6.970;2023-06-04T07:51:53;16.30;99.90
52203;DHT22;38173;52.850;6.970;2023-06-04T07:54:19;16.40;99.90
52203;DHT22;38173;52.850;6.970;2023-06-04T07:56:45;16.60;99.90
52203;DHT22;38173;52.850;6.970;2023-06-04T07:59:13;16.70;99.90
52203;DHT22;38173;52.850;6.970;2023-06-04T08:01:39;16.80;99.90
52203;DHT22;38173;52.850;6.970;2023-06-04T08:04:08;16.90;99.90
52203;DHT22;38173;52.850;6.970;2023-06-04T08:06:33;16.90;99.90
52203;DHT22;38173;52.850;6.970;2023-06-04T08:09:00;17.00;99.90
52203;DHT22;38173;52.850;6.970;2023-06-04T08:11:26;17.10;99.90
52203;DHT22;38173;52.850;6.970;2023-06-04T08:13:52;17.20;99.90
52203;DHT22;38173;52.850;6.970;2023-06-04T08:16:18;17.20;99.90
52203;DHT22;38173;52.850;6.970;2023-06-04T08:18:44;17.30;99.90
52203;DHT22;38173;52.850;6.970;2023-06-04T08:21:10;17.30;99.90
52203;DHT22;38173;52.850;6.970;2023-06-04T08:23:37;17.40;99.90
52203;DHT22;38173;52.850;6.970;2023-06-04T08:26:03;17.50;99.90
52203;DHT22;38173;52.850;6.970;2023-06-04T08:28:29;17.60;99.90
52203;DHT22;38173;52.850;6.970;2023-06-04T08:30:55;17.70;99.90
52203;DHT22;38173;52.850;6.970;2023-06-04T08:33:21;17.90;99.90
52203;DHT22;38173;52.850;6.970;2023-06-04T08:35:47;18.00;99.90
52203;DHT22;38173;52.850;6.970;2023-06-04T08:38:12;18.10;99.90
52203;DHT22;38173;52.850;6.970;2023-06-04T08:40:38;18.10;98.80
52203;DHT22;38173;52.850;6.970;2023-06-04T08:43:04;18.20;98.90
52203;DHT22;38173;52.850;6.970;2023-06-04T08:45:33;18.30;98.30
52203;DHT22;38173;52.850;6.970;2023-06-04T08:48:02;18.30;97.30
52203;DHT22;38173;52.850;6.970;2023-06-04T08:50:29;18.40;96.70
52203;DHT22;38173;52.850;6.970;2023-06-04T08:52:57;18.50;95.00
52203;DHT22;38173;52.850;6.970;2023-06-04T08:55:23;18.60;93.70
52203;DHT22;38173;52.850;6.970;2023-06-04T08:57:50;18.70;90.30
52203;DHT22;38173;52.850;6.970;2023-06-04T09:00:19;18.70;86.30
52203;DHT22;38173;52.850;6.970;2023-06-04T09:02:47;18.80;90.80
52203;DHT22;38173;52.850;6.970;2023-06-04T09:05:23;18.90;90.50
52203;DHT22;38173;52.850;6.970;2023-06-04T09:07:52;18.90;88.40
52203;DHT22;38173;52.850;6.970;2023-06-04T09:10:24;19.10;84.80
52203;DHT22;38173;52.850;6.970;2023-06-04T09:12:52;19.10;83.30
52203;DHT22;38173;52.850;6.970;2023-06-04T09:15:19;19.10;84.60
52203;DHT22;38173;52.850;6.970;2023-06-04T09:17:45;19.30;83.40
52203;DHT22;38173;52.850;6.970;2023-06-04T09:20:21;19.30;82.20
52203;DHT22;38173;52.850;6.970;2023-06-04T09:22:47;19.40;84.80
52203;DHT22;38173;52.850;6.970;2023-06-04T09:25:22;19.50;84.70
52203;DHT22;38173;52.850;6.970;2023-06-04T09:27:48;19.50;80.70
52203;DHT22;38173;52.850;6.970;2023-06-04T09:30:15;19.60;83.60
52203;DHT22;38173;52.850;6.970;2023-06-04T09:32:41;19.70;81.00
52203;DHT22;38173;52.850;6.970;2023-06-04T09:35:15;19.80;81.50
52203;DHT22;38173;52.850;6.970;2023-06-04T09:37:51;19.90;79.10
52203;DHT22;38173;52.850;6.970;2023-06-04T09:40:17;19.90;80.70
52203;DHT22;38173;52.850;6.970;2023-06-04T09:42:47;20.00;81.40
52203;DHT22;38173;52.850;6.970;2023-06-04T09:45:30;20.00;80.00
52203;DHT22;38173;52.850;6.970;2023-06-04T09:48:00;20.00;77.90
52203;DHT22;38173;52.850;6.970;2023-06-04T09:50:27;20.00;76.20
52203;DHT22;38173;52.850;6.970;2023-06-04T09:52:54;20.10;75.60
52203;DHT22;38173;52.850;6.970;2023-06-04T09:55:20;20.10;75.80
52203;DHT22;38173;52.850;6.970;2023-06-04T09:57:51;20.10;70.10
52203;DHT22;38173;52.850;6.970;2023-06-04T10:00:18;20.10;71.40
52203;DHT22;38173;52.850;6.970;2023-06-04T10:02:46;20.00;70.60
52203;DHT22;38173;52.850;6.970;2023-06-04T10:05:13;20.20;73.40
52203;DHT22;38173;52.850;6.970;2023-06-04T10:07:47;20.30;73.70
52203;DHT22;38173;52.850;6.970;2023-06-04T10:10:18;20.40;74.70
52203;DHT22;38173;52.850;6.970;2023-06-04T10:12:50;20.50;69.90
52203;DHT22;38173;52.850;6.970;2023-06-04T10:15:18;20.50;67.30
52203;DHT22;38173;52.850;6.970;2023-06-04T10:17:47;20.50;69.30
52203;DHT22;38173;52.850;6.970;2023-06-04T10:20:14;20.60;69.70
52203;DHT22;38173;52.850;6.970;2023-06-04T10:22:40;20.70;67.70
52203;DHT22;38173;52.850;6.970;2023-06-04T10:25:08;20.90;71.70
52203;DHT22;38173;52.850;6.970;2023-06-04T10:27:36;20.90;66.40
52203;DHT22;38173;52.850;6.970;2023-06-04T10:30:04;21.00;66.20
52203;DHT22;38173;52.850;6.970;2023-06-04T10:32:30;21.10;66.60
52203;DHT22;38173;52.850;6.970;2023-06-04T10:34:57;21.20;65.20
52203;DHT22;38173;52.850;6.970;2023-06-04T10:37:24;21.40;66.90
52203;DHT22;38173;52.850;6.970;2023-06-04T10:39:57;21.40;64.00
52203;DHT22;38173;52.850;6.970;2023-06-04T10:42:25;21.60;66.10
52203;DHT22;38173;52.850;6.970;2023-06-04T10:44:52;21.60;65.70
52203;DHT22;38173;52.850;6.970;2023-06-04T10:47:19;21.90;66.00
52203;DHT22;38173;52.850;6.970;2023-06-04T10:49:46;22.10;65.80
52203;DHT22;38173;52.850;6.970;2023-06-04T10:52:12;22.30;64.20
52203;DHT22;38173;52.850;6.970;2023-06-04T10:54:38;22.20;63.30
52203;DHT22;38173;52.850;6.970;2023-06-04T10:57:12;22.10;60.10
52203;DHT22;38173;52.850;6.970;2023-06-04T10:59:38;22.00;62.40
52203;DHT22;38173;52.850;6.970;2023-06-04T11:02:10;22.00;61.90
52203;DHT22;38173;52.850;6.970;2023-06-04T11:04:36;22.00;63.40
52203;DHT22;38173;52.850;6.970;2023-06-04T11:07:04;22.10;61.60
52203;DHT22;38173;52.850;6.970;2023-06-04T11:09:50;22.10;62.50
52203;DHT22;38173;52.850;6.970;2023-06-04T11:12:16;22.30;63.80
52203;DHT22;38173;52.850;6.970;2023-06-04T11:14:54;22.40;60.00
52203;DHT22;38173;52.850;6.970;2023-06-04T11:17:20;22.30;60.50
52203;DHT22;38173;52.850;6.970;2023-06-04T11:19:46;22.30;59.40
52203;DHT22;38173;52.850;6.970;2023-06-04T11:22:13;22.20;57.90
52203;DHT22;38173;52.850;6.970;2023-06-04T11:24:39;22.20;60.50
52203;DHT22;38173;52.850;6.970;2023-06-04T11:27:05;22.10;59.10
52203;DHT22;38173;52.850;6.970;2023-06-04T11:29:32;22.00;58.90
52203;DHT22;38173;52.850;6.970;2023-06-04T11:31:58;21.90;58.00
52203;DHT22;38173;52.850;6.970;2023-06-04T11:34:25;21.90;59.90
52203;DHT22;38173;52.850;6.970;2023-06-04T11:36:52;21.80;60.00
52203;DHT22;38173;52.850;6.970;2023-06-04T11:39:19;21.90;60.20
52203;DHT22;38173;52.850;6.970;2023-06-04T11:41:45;22.00;59.20
52203;DHT22;38173;52.850;6.970;2023-06-04T11:44:12;22.10;60.10
52203;DHT22;38173;52.850;6.970;2023-06-04T11:46:42;22.20;60.00
52203;DHT22;38173;52.850;6.970;2023-06-04T11:49:18;22.20;59.30
52203;DHT22;38173;52.850;6.970;2023-06-04T11:51:51;22.30;58.00
52203;DHT22;38173;52.850;6.970;2023-06-04T11:54:21;22.30;58.40
52203;DHT22;38173;52.850;6.970;2023-06-04T11:56:51;22.40;56.90
52203;DHT22;38173;52.850;6.970;2023-06-04T11:59:18;22.50;57.00
52203;DHT22;38173;52.850;6.970;2023-06-04T12:01:48;22.50;58.20
52203;DHT22;38173;52.850;6.970;2023-06-04T12:04:19;22.60;57.90
52203;DHT22;38173;52.850;6.970;2023-06-04T12:06:59;22.60;56.80
52203;DHT22;38173;52.850;6.970;2023-06-04T12:09:29;22.80;58.10
52203;DHT22;38173;52.850;6.970;2023-06-04T12:12:09;23.00;56.70
52203;DHT22;38173;52.850;6.970;2023-06-04T12:14:35;23.20;55.80
52203;DHT22;38173;52.850;6.970;2023-06-04T12:17:06;23.30;54.50
52203;DHT22;38173;52.850;6.970;2023-06-04T12:19:33;23.50;56.10
52203;DHT22;38173;52.850;6.970;2023-06-04T12:22:09;23.70;55.10
52203;DHT22;38173;52.850;6.970;2023-06-04T12:24:49;23.70;55.70
52203;DHT22;38173;52.850;6.970;2023-06-04T12:27:19;23.80;53.50
52203;DHT22;38173;52.850;6.970;2023-06-04T12:29:57;23.80;53.70
52203;DHT22;38173;52.850;6.970;2023-06-04T12:32:28;23.80;53.30
52203;DHT22;38173;52.850;6.970;2023-06-04T12:34:55;23.90;54.80
52203;DHT22;38173;52.850;6.970;2023-06-04T12:37:31;24.10;54.50
52203;DHT22;38173;52.850;6.970;2023-06-04T12:39:57;24.40;52.30
52203;DHT22;38173;52.850;6.970;2023-06-04T12:42:23;24.40;51.40
52203;DHT22;38173;52.850;6.970;2023-06-04T12:44:54;24.50;52.30
52203;DHT22;38173;52.850;6.970;2023-06-04T12:47:20;24.60;52.30
52203;DHT22;38173;52.850;6.970;2023-06-04T12:49:47;24.80;53.00
52203;DHT22;38173;52.850;6.970;2023-06-04T12:52:13;25.10;52.10
52203;DHT22;38173;52.850;6.970;2023-06-04T12:54:43;25.30;53.40
52203;DHT22;38173;52.850;6.970;2023-06-04T12:57:09;25.70;53.80
52203;DHT22;38173;52.850;6.970;2023-06-04T12:59:35;25.80;52.50
52203;DHT22;38173;52.850;6.970;2023-06-04T13:02:01;25.90;51.80
52203;DHT22;38173;52.850;6.970;2023-06-04T13:04:40;25.80;51.00
52203;DHT22;38173;52.850;6.970;2023-06-04T13:07:10;25.90;50.70
52203;DHT22;38173;52.850;6.970;2023-06-04T13:09:35;26.00;49.80
52203;DHT22;38173;52.850;6.970;2023-06-04T13:12:03;26.20;50.20
52203;DHT22;38173;52.850;6.970;2023-06-04T13:14:31;26.40;51.10
52203;DHT22;38173;52.850;6.970;2023-06-04T13:17:08;26.70;49.40
52203;DHT22;38173;52.850;6.970;2023-06-04T13:19:41;27.00;49.90
52203;DHT22;38173;52.850;6.970;2023-06-04T13:22:13;27.20;50.50
52203;DHT22;38173;52.850;6.970;2023-06-04T13:24:39;27.40;51.70
52203;DHT22;38173;52.850;6.970;2023-06-04T13:27:08;27.50;49.10
52203;DHT22;38173;52.850;6.970;2023-06-04T13:29:37;27.40;48.20
52203;DHT22;38173;52.850;6.970;2023-06-04T13:32:03;27.50;49.60
52203;DHT22;38173;52.850;6.970;2023-06-04T13:34:29;27.50;48.00
52203;DHT22;38173;52.850;6.970;2023-06-04T13:36:57;27.50;49.10
52203;DHT22;38173;52.850;6.970;2023-06-04T13:39:23;27.50;49.00
52203;DHT22;38173;52.850;6.970;2023-06-04T13:41:52;27.60;49.50
52203;DHT22;38173;52.850;6.970;2023-06-04T13:44:27;27.80;50.00
52203;DHT22;38173;52.850;6.970;2023-06-04T13:46:57;28.00;48.20
52203;DHT22;38173;52.850;6.970;2023-06-04T13:49:33;28.30;49.90
52203;DHT22;38173;52.850;6.970;2023-06-04T13:51:59;28.30;49.00
52203;DHT22;38173;52.850;6.970;2023-06-04T13:54:25;28.30;48.70
52203;DHT22;38173;52.850;6.970;2023-06-04T13:56:52;28.40;49.50
52203;DHT22;38173;52.850;6.970;2023-06-04T13:59:18;28.60;48.70
52203;DHT22;38173;52.850;6.970;2023-06-04T14:01:44;28.70;48.00
52203;DHT22;38173;52.850;6.970;2023-06-04T14:04:18;28.90;47.70
52203;DHT22;38173;52.850;6.970;2023-06-04T14:06:48;29.10;47.50
52203;DHT22;38173;52.850;6.970;2023-06-04T14:09:14;28.90;47.30
52203;DHT22;38173;52.850;6.970;2023-06-04T14:11:41;28.90;46.90
52203;DHT22;38173;52.850;6.970;2023-06-04T14:14:07;29.20;47.90
52203;DHT22;38173;52.850;6.970;2023-06-04T14:16:33;29.30;48.90
52203;DHT22;38173;52.850;6.970;2023-06-04T14:19:00;29.30;47.50
52203;DHT22;38173;52.850;6.970;2023-06-04T14:21:29;29.40;46.80
52203;DHT22;38173;52.850;6.970;2023-06-04T14:23:55;29.40;47.30
52203;DHT22;38173;52.850;6.970;2023-06-04T14:26:22;29.70;46.90
52203;DHT22;38173;52.850;6.970;2023-06-04T14:28:51;29.80;48.00
52203;DHT22;38173;52.850;6.970;2023-06-04T14:31:17;29.80;47.00
52203;DHT22;38173;52.850;6.970;2023-06-04T14:33:43;30.00;47.40
52203;DHT22;38173;52.850;6.970;2023-06-04T14:36:09;30.20;46.90
52203;DHT22;38173;52.850;6.970;2023-06-04T14:38:38;30.30;46.10
52203;DHT22;38173;52.850;6.970;2023-06-04T14:41:12;30.30;45.40
52203;DHT22;38173;52.850;6.970;2023-06-04T14:43:38;30.10;45.30
52203;DHT22;38173;52.850;6.970;2023-06-04T14:46:04;30.10;46.40
52203;DHT22;38173;52.850;6.970;2023-06-04T14:48:30;30.00;46.50
52203;DHT22;38173;52.850;6.970;2023-06-04T14:50:56;30.20;48.30
52203;DHT22;38173;52.850;6.970;2023-06-04T14:53:33;30.30;47.60
52203;DHT22;38173;52.850;6.970;2023-06-04T14:56:00;30.20;46.50
52203;DHT22;38173;52.850;6.970;2023-06-04T14:58:26;30.20;48.50
52203;DHT22;38173;52.850;6.970;2023-06-04T15:00:52;30.50;48.10
52203;DHT22;38173;52.850;6.970;2023-06-04T15:03:24;30.60;47.30
52203;DHT22;38173;52.850;6.970;2023-06-04T15:05:51;30.60;46.40
52203;DHT22;38173;52.850;6.970;2023-06-04T15:08:17;30.60;46.90
52203;DHT22;38173;52.850;6.970;2023-06-04T15:10:42;30.60;46.30
52203;DHT22;38173;52.850;6.970;2023-06-04T15:13:08;30.70;45.60
52203;DHT22;38173;52.850;6.970;2023-06-04T15:15:34;30.70;46.30
52203;DHT22;38173;52.850;6.970;2023-06-04T15:18:01;30.70;45.60
52203;DHT22;38173;52.850;6.970;2023-06-04T15:20:27;30.60;45.40
52203;DHT22;38173;52.850;6.970;2023-06-04T15:22:54;30.40;46.10
52203;DHT22;38173;52.850;6.970;2023-06-04T15:25:21;30.50;48.30
52203;DHT22;38173;52.850;6.970;2023-06-04T15:27:47;30.00;46.30
52203;DHT22;38173;52.850;6.970;2023-06-04T15:30:13;29.90;48.50
52203;DHT22;38173;52.850;6.970;2023-06-04T15:32:39;29.80;49.30
52203;DHT22;38173;52.850;6.970;2023-06-04T15:35:07;29.70;49.30
52203;DHT22;38173;52.850;6.970;2023-06-04T15:37:35;29.40;48.10
52203;DHT22;38173;52.850;6.970;2023-06-04T15:40:02;29.30;49.50
52203;DHT22;38173;52.850;6.970;2023-06-04T15:42:53;29.20;48.90